Lavieen Rose — 3FKN — position and weather

sailwx.info

Track history (hours):
 
Tides and Currents Weather Stations Pressure Air Temp Water Temp Dewpoint Dewpoint Depression Visibility Wind Speed Wind Dir Waves Ship Positions

Lavieen Rose

Last reported at 2018-Jan-25 15:43 UTC. Time now 2018-Feb-24 20:21 UTC.
Position S 30°40' E 030°49'.
Warning: this ship's position is 30 days out of date.

Length 179 m; draft 6.4 m.

Type: Cargo ship. MMSI: 357092000.

Date/timePositionNaut miles runAvg speedWind from/ knotsBaromVisibWave heightAir tempDewpointWater temp
2018-Jan-25 15:43S 30°40' E 030°49'313.5
2018-Jan-25 15:30S 30°37' E 030°50'713.3
2018-Jan-25 14:59S 30°31' E 030°54'613.2
2018-Jan-25 14:30S 30°26' E 030°57'713.0
2018-Jan-25 14:00S 30°19' E 030°59'612.9
2018-Jan-25 13:30S 30°13' E 031°01'713.2
2018-Jan-25 13:00S 30°07' E 031°03'713.7
2018-Jan-25 12:30S 30°00' E 031°05'713.4
2018-Jan-25 12:00S 29°53' E 031°06'3 5.3
2018-Jan-25 11:30S 29°53' E 031°03'1 2.0
2018-Jan-25 10:58S 29°52' E 031°02'0 0.0
2018-Jan-25 10:28S 29°52' E 031°02'0 0.0
2018-Jan-25 09:58S 29°52' E 031°02'0 0.0
2018-Jan-25 09:28S 29°52' E 031°02'0 0.0
2018-Jan-25 08:58S 29°52' E 031°02'0 0.0
2018-Jan-25 08:28S 29°52' E 031°02'0 0.0
2018-Jan-25 07:58S 29°52' E 031°02'0 0.0
2018-Jan-25 07:28S 29°52' E 031°02'0 0.0
2018-Jan-25 06:58S 29°52' E 031°02'0 0.0
2018-Jan-25 06:28S 29°52' E 031°02'0 0.0
2018-Jan-25 05:58S 29°52' E 031°02'0 0.0
2018-Jan-25 05:28S 29°52' E 031°02'0 0.0
2018-Jan-25 04:58S 29°52' E 031°02'0 0.0
2018-Jan-25 04:28S 29°52' E 031°02'0 0.0
2018-Jan-25 03:58S 29°52' E 031°02'0 0.0
2018-Jan-25 03:28S 29°52' E 031°02'0 0.0
2018-Jan-25 02:58S 29°52' E 031°02'0 0.0
2018-Jan-25 02:19S 29°52' E 031°02'0 0.0
2018-Jan-25 01:58S 29°52' E 031°02'0 0.0
2018-Jan-25 01:25S 29°52' E 031°02'0 0.0
2018-Jan-25 00:58S 29°52' E 031°02'0 0.0
2018-Jan-25 00:28S 29°52' E 031°02'0 0.0
2018-Jan-24 23:58S 29°52' E 031°02'0 0.0
2018-Jan-24 23:28S 29°52' E 031°02'0 0.0
2018-Jan-24 22:58S 29°52' E 031°02'0 0.0
2018-Jan-24 22:28S 29°52' E 031°02'0 0.0
2018-Jan-24 21:58S 29°52' E 031°02'0 0.0
2018-Jan-24 21:28S 29°52' E 031°02'0 0.0
2018-Jan-24 20:58S 29°52' E 031°02'0 0.0
2018-Jan-24 20:28S 29°52' E 031°02'0 0.0
2018-Jan-24 19:58S 29°52' E 031°02'0 0.0
2018-Jan-24 19:25S 29°52' E 031°02'0 0.0
2018-Jan-24 18:58S 29°52' E 031°02'0 0.0
2018-Jan-24 18:28S 29°52' E 031°02'0 0.0
2018-Jan-24 17:58S 29°52' E 031°02'0 0.0
2018-Jan-24 17:22S 29°52' E 031°02'0 0.0
2018-Jan-24 16:58S 29°52' E 031°02'0 0.0
2018-Jan-24 16:28S 29°52' E 031°02'0 0.0
2018-Jan-24 15:58S 29°52' E 031°02'0 0.0
2018-Jan-24 15:28S 29°52' E 031°02'0 0.0
2018-Jan-24 14:58S 29°52' E 031°02'0 0.6
2018-Jan-24 14:31S 29°52' E 031°02'3 5.8
2018-Jan-24 14:01S 29°51' E 031°05'2 4.7
2018-Jan-24 13:31S 29°49' E 031°07'1 1.5
2018-Jan-24 13:00S 29°49' E 031°07'2 3.7
2018-Jan-24 12:30S 29°48' E 031°09'611.2
2018-Jan-24 12:01S 29°45' E 031°15'713.2
2018-Jan-24 11:30S 29°41' E 031°21'713.5
2018-Jan-24 11:00S 29°38' E 031°28'613.0
2018-Jan-24 10:31S 29°34' E 031°34'510.2
2018-Jan-24 10:00S 29°31' E 031°38'4 7.1
2018-Jan-24 09:30S 29°29' E 031°42'4 7.4
2018-Jan-24 09:00S 29°27' E 031°45'4 7.5
2018-Jan-24 08:30S 29°25' E 031°49'4 8.5
2018-Jan-24 08:00S 29°22' E 031°53'5 9.2
2018-Jan-24 07:30S 29°20' E 031°57'510.0
2018-Jan-24 07:00S 29°17' E 032°02'  
Track history (hours):
 
Tides and Currents Weather Stations Pressure Air Temp Water Temp Dewpoint Dewpoint Depression Visibility Wind Speed Wind Dir Waves Ship Positions

Lavieen Rose

Last reported at 2018-Jan-25 15:43 UTC. Time now 2018-Feb-24 20:21 UTC.
Position S 30°40' E 030°49'.
Warning: this ship's position is 30 days out of date.

Length 179 m; draft 6.4 m.

Type: Cargo ship. MMSI: 357092000.

Date/timePositionNaut miles runAvg speedWind from/ knotsBaromVisibWave heightAir tempDewpointWater temp
2018-Jan-25 15:43S 30°40' E 030°49'313.5
2018-Jan-25 15:30S 30°37' E 030°50'713.3
2018-Jan-25 14:59S 30°31' E 030°54'613.2
2018-Jan-25 14:30S 30°26' E 030°57'713.0
2018-Jan-25 14:00S 30°19' E 030°59'612.9
2018-Jan-25 13:30S 30°13' E 031°01'713.2
2018-Jan-25 13:00S 30°07' E 031°03'713.7
2018-Jan-25 12:30S 30°00' E 031°05'713.4
2018-Jan-25 12:00S 29°53' E 031°06'3 5.3
2018-Jan-25 11:30S 29°53' E 031°03'1 2.0
2018-Jan-25 10:58S 29°52' E 031°02'0 0.0
2018-Jan-25 10:28S 29°52' E 031°02'0 0.0
2018-Jan-25 09:58S 29°52' E 031°02'0 0.0
2018-Jan-25 09:28S 29°52' E 031°02'0 0.0
2018-Jan-25 08:58S 29°52' E 031°02'0 0.0
2018-Jan-25 08:28S 29°52' E 031°02'0 0.0
2018-Jan-25 07:58S 29°52' E 031°02'0 0.0
2018-Jan-25 07:28S 29°52' E 031°02'0 0.0
2018-Jan-25 06:58S 29°52' E 031°02'0 0.0
2018-Jan-25 06:28S 29°52' E 031°02'0 0.0
2018-Jan-25 05:58S 29°52' E 031°02'0 0.0
2018-Jan-25 05:28S 29°52' E 031°02'0 0.0
2018-Jan-25 04:58S 29°52' E 031°02'0 0.0
2018-Jan-25 04:28S 29°52' E 031°02'0 0.0
2018-Jan-25 03:58S 29°52' E 031°02'0 0.0
2018-Jan-25 03:28S 29°52' E 031°02'0 0.0
2018-Jan-25 02:58S 29°52' E 031°02'0 0.0
2018-Jan-25 02:19S 29°52' E 031°02'0 0.0
2018-Jan-25 01:58S 29°52' E 031°02'0 0.0
2018-Jan-25 01:25S 29°52' E 031°02'0 0.0
2018-Jan-25 00:58S 29°52' E 031°02'0 0.0
2018-Jan-25 00:28S 29°52' E 031°02'0 0.0
2018-Jan-24 23:58S 29°52' E 031°02'0 0.0
2018-Jan-24 23:28S 29°52' E 031°02'0 0.0
2018-Jan-24 22:58S 29°52' E 031°02'0 0.0
2018-Jan-24 22:28S 29°52' E 031°02'0 0.0
2018-Jan-24 21:58S 29°52' E 031°02'0 0.0
2018-Jan-24 21:28S 29°52' E 031°02'0 0.0
2018-Jan-24 20:58S 29°52' E 031°02'0 0.0
2018-Jan-24 20:28S 29°52' E 031°02'0 0.0
2018-Jan-24 19:58S 29°52' E 031°02'0 0.0
2018-Jan-24 19:25S 29°52' E 031°02'0 0.0
2018-Jan-24 18:58S 29°52' E 031°02'0 0.0
2018-Jan-24 18:28S 29°52' E 031°02'0 0.0
2018-Jan-24 17:58S 29°52' E 031°02'0 0.0
2018-Jan-24 17:22S 29°52' E 031°02'0 0.0
2018-Jan-24 16:58S 29°52' E 031°02'0 0.0
2018-Jan-24 16:28S 29°52' E 031°02'0 0.0
2018-Jan-24 15:58S 29°52' E 031°02'0 0.0
2018-Jan-24 15:28S 29°52' E 031°02'0 0.0
2018-Jan-24 14:58S 29°52' E 031°02'0 0.6
2018-Jan-24 14:31S 29°52' E 031°02'3 5.8
2018-Jan-24 14:01S 29°51' E 031°05'2 4.7
2018-Jan-24 13:31S 29°49' E 031°07'1 1.5
2018-Jan-24 13:00S 29°49' E 031°07'2 3.7
2018-Jan-24 12:30S 29°48' E 031°09'611.2
2018-Jan-24 12:01S 29°45' E 031°15'713.2
2018-Jan-24 11:30S 29°41' E 031°21'713.5
2018-Jan-24 11:00S 29°38' E 031°28'613.0
2018-Jan-24 10:31S 29°34' E 031°34'510.2
2018-Jan-24 10:00S 29°31' E 031°38'4 7.1
2018-Jan-24 09:30S 29°29' E 031°42'4 7.4
2018-Jan-24 09:00S 29°27' E 031°45'4 7.5
2018-Jan-24 08:30S 29°25' E 031°49'4 8.5
2018-Jan-24 08:00S 29°22' E 031°53'5 9.2
2018-Jan-24 07:30S 29°20' E 031°57'510.0
2018-Jan-24 07:00S 29°17' E 032°02'  

Dump ship's entire track history